sensor_id;sensor_type;location;lat;lon;timestamp;P1;durP1;ratioP1;P2;durP2;ratioP2
5452;SDS011;2749;53.576;9.822;2023-04-16T00:01:22;18.93;;;16.27;;
5452;SDS011;2749;53.576;9.822;2023-04-16T00:03:48;24.80;;;17.83;;
5452;SDS011;2749;53.576;9.822;2023-04-16T00:06:14;22.00;;;19.10;;
5452;SDS011;2749;53.576;9.822;2023-04-16T00:08:40;26.03;;;18.90;;
5452;SDS011;2749;53.576;9.822;2023-04-16T00:11:07;23.60;;;18.00;;
5452;SDS011;2749;53.576;9.822;2023-04-16T00:13:33;19.97;;;17.40;;
5452;SDS011;2749;53.576;9.822;2023-04-16T00:15:59;24.60;;;17.90;;
5452;SDS011;2749;53.576;9.822;2023-04-16T00:18:25;23.77;;;17.07;;
5452;SDS011;2749;53.576;9.822;2023-04-16T00:20:51;20.37;;;16.60;;
5452;SDS011;2749;53.576;9.822;2023-04-16T00:23:18;27.10;;;18.77;;
5452;SDS011;2749;53.576;9.822;2023-04-16T00:25:45;23.07;;;17.90;;
5452;SDS011;2749;53.576;9.822;2023-04-16T00:28:11;21.07;;;17.80;;
5452;SDS011;2749;53.576;9.822;2023-04-16T00:30:37;25.77;;;18.90;;
5452;SDS011;2749;53.576;9.822;2023-04-16T00:33:03;23.00;;;17.90;;
5452;SDS011;2749;53.576;9.822;2023-04-16T00:35:29;26.87;;;19.87;;
5452;SDS011;2749;53.576;9.822;2023-04-16T00:37:55;24.40;;;18.30;;
5452;SDS011;2749;53.576;9.822;2023-04-16T00:40:21;26.27;;;20.37;;
5452;SDS011;2749;53.576;9.822;2023-04-16T00:42:47;25.10;;;18.70;;
5452;SDS011;2749;53.576;9.822;2023-04-16T00:45:13;21.93;;;17.70;;
5452;SDS011;2749;53.576;9.822;2023-04-16T00:47:39;20.97;;;17.17;;
5452;SDS011;2749;53.576;9.822;2023-04-16T00:50:06;22.70;;;17.63;;
5452;SDS011;2749;53.576;9.822;2023-04-16T00:52:32;24.03;;;18.57;;
5452;SDS011;2749;53.576;9.822;2023-04-16T00:54:58;27.30;;;19.50;;
5452;SDS011;2749;53.576;9.822;2023-04-16T00:57:24;23.37;;;18.23;;
5452;SDS011;2749;53.576;9.822;2023-04-16T00:59:51;24.33;;;19.30;;
5452;SDS011;2749;53.576;9.822;2023-04-16T01:02:17;25.00;;;17.97;;
5452;SDS011;2749;53.576;9.822;2023-04-16T01:04:42;27.90;;;19.10;;
5452;SDS011;2749;53.576;9.822;2023-04-16T01:07:08;26.67;;;18.23;;
5452;SDS011;2749;53.576;9.822;2023-04-16T01:09:35;21.70;;;17.70;;
5452;SDS011;2749;53.576;9.822;2023-04-16T01:12:01;24.07;;;17.57;;
5452;SDS011;2749;53.576;9.822;2023-04-16T01:14:27;25.07;;;19.37;;
5452;SDS011;2749;53.576;9.822;2023-04-16T01:16:53;25.60;;;17.73;;
5452;SDS011;2749;53.576;9.822;2023-04-16T01:19:19;27.80;;;17.53;;
5452;SDS011;2749;53.576;9.822;2023-04-16T01:21:45;26.03;;;16.90;;
5452;SDS011;2749;53.576;9.822;2023-04-16T01:24:11;23.17;;;18.17;;
5452;SDS011;2749;53.576;9.822;2023-04-16T01:26:36;25.70;;;18.03;;
5452;SDS011;2749;53.576;9.822;2023-04-16T01:29:02;25.07;;;19.07;;
5452;SDS011;2749;53.576;9.822;2023-04-16T01:31:28;24.07;;;17.20;;
5452;SDS011;2749;53.576;9.822;2023-04-16T01:33:54;22.90;;;17.33;;
5452;SDS011;2749;53.576;9.822;2023-04-16T01:36:20;26.83;;;17.57;;
5452;SDS011;2749;53.576;9.822;2023-04-16T01:38:46;27.67;;;16.97;;
5452;SDS011;2749;53.576;9.822;2023-04-16T01:41:12;23.87;;;16.90;;
5452;SDS011;2749;53.576;9.822;2023-04-16T01:43:38;24.37;;;17.03;;
5452;SDS011;2749;53.576;9.822;2023-04-16T01:46:17;27.57;;;16.77;;
5452;SDS011;2749;53.576;9.822;2023-04-16T01:48:43;22.20;;;17.70;;
5452;SDS011;2749;53.576;9.822;2023-04-16T01:51:09;24.40;;;18.87;;
5452;SDS011;2749;53.576;9.822;2023-04-16T01:53:35;19.67;;;15.93;;
5452;SDS011;2749;53.576;9.822;2023-04-16T01:56:01;20.97;;;15.87;;
5452;SDS011;2749;53.576;9.822;2023-04-16T01:58:28;19.93;;;16.30;;
5452;SDS011;2749;53.576;9.822;2023-04-16T02:00:54;21.53;;;15.70;;
5452;SDS011;2749;53.576;9.822;2023-04-16T02:03:20;22.60;;;16.77;;
5452;SDS011;2749;53.576;9.822;2023-04-16T02:05:48;23.00;;;17.40;;
5452;SDS011;2749;53.576;9.822;2023-04-16T02:08:14;19.17;;;15.23;;
5452;SDS011;2749;53.576;9.822;2023-04-16T02:10:40;29.27;;;18.40;;
5452;SDS011;2749;53.576;9.822;2023-04-16T02:13:06;23.30;;;16.23;;
5452;SDS011;2749;53.576;9.822;2023-04-16T02:15:32;23.43;;;16.90;;
5452;SDS011;2749;53.576;9.822;2023-04-16T02:17:58;19.30;;;16.27;;
5452;SDS011;2749;53.576;9.822;2023-04-16T02:20:24;24.03;;;17.60;;
5452;SDS011;2749;53.576;9.822;2023-04-16T02:22:50;18.30;;;15.13;;
5452;SDS011;2749;53.576;9.822;2023-04-16T02:25:16;26.53;;;19.07;;
5452;SDS011;2749;53.576;9.822;2023-04-16T02:27:42;21.70;;;16.50;;
5452;SDS011;2749;53.576;9.822;2023-04-16T02:30:08;23.97;;;17.60;;
5452;SDS011;2749;53.576;9.822;2023-04-16T02:32:34;21.67;;;17.40;;
5452;SDS011;2749;53.576;9.822;2023-04-16T02:35:00;25.03;;;21.43;;
5452;SDS011;2749;53.576;9.822;2023-04-16T02:37:28;21.47;;;17.47;;
5452;SDS011;2749;53.576;9.822;2023-04-16T02:39:53;22.80;;;18.70;;
5452;SDS011;2749;53.576;9.822;2023-04-16T02:42:19;28.10;;;20.30;;
5452;SDS011;2749;53.576;9.822;2023-04-16T02:44:45;25.27;;;18.57;;
5452;SDS011;2749;53.576;9.822;2023-04-16T02:47:11;22.43;;;19.53;;
5452;SDS011;2749;53.576;9.822;2023-04-16T02:49:37;29.20;;;20.40;;
5452;SDS011;2749;53.576;9.822;2023-04-16T02:52:03;27.53;;;19.63;;
5452;SDS011;2749;53.576;9.822;2023-04-16T02:54:29;27.50;;;20.00;;
5452;SDS011;2749;53.576;9.822;2023-04-16T02:56:55;32.50;;;20.10;;
5452;SDS011;2749;53.576;9.822;2023-04-16T02:59:21;25.30;;;21.43;;
5452;SDS011;2749;53.576;9.822;2023-04-16T03:01:47;28.53;;;20.90;;
5452;SDS011;2749;53.576;9.822;2023-04-16T03:04:13;26.60;;;21.60;;
5452;SDS011;2749;53.576;9.822;2023-04-16T03:06:38;25.40;;;20.30;;
5452;SDS011;2749;53.576;9.822;2023-04-16T03:09:04;29.70;;;20.70;;
5452;SDS011;2749;53.576;9.822;2023-04-16T03:11:30;28.00;;;20.50;;
5452;SDS011;2749;53.576;9.822;2023-04-16T03:13:56;24.30;;;19.30;;
5452;SDS011;2749;53.576;9.822;2023-04-16T03:16:22;24.57;;;18.67;;
5452;SDS011;2749;53.576;9.822;2023-04-16T03:18:48;23.47;;;18.10;;
5452;SDS011;2749;53.576;9.822;2023-04-16T03:21:14;25.73;;;20.50;;
5452;SDS011;2749;53.576;9.822;2023-04-16T03:23:40;25.60;;;20.03;;
5452;SDS011;2749;53.576;9.822;2023-04-16T03:26:06;26.20;;;20.63;;
5452;SDS011;2749;53.576;9.822;2023-04-16T03:28:32;29.70;;;21.63;;
5452;SDS011;2749;53.576;9.822;2023-04-16T03:30:58;24.43;;;18.40;;
5452;SDS011;2749;53.576;9.822;2023-04-16T03:33:24;25.20;;;18.03;;
5452;SDS011;2749;53.576;9.822;2023-04-16T03:35:54;24.70;;;21.00;;
5452;SDS011;2749;53.576;9.822;2023-04-16T03:38:20;31.10;;;18.47;;
5452;SDS011;2749;53.576;9.822;2023-04-16T03:40:46;27.10;;;19.77;;
5452;SDS011;2749;53.576;9.822;2023-04-16T03:43:12;22.13;;;18.77;;
5452;SDS011;2749;53.576;9.822;2023-04-16T03:45:42;25.50;;;18.07;;
5452;SDS011;2749;53.576;9.822;2023-04-16T03:48:08;24.07;;;18.30;;
5452;SDS011;2749;53.576;9.822;2023-04-16T03:50:34;28.10;;;20.90;;
5452;SDS011;2749;53.576;9.822;2023-04-16T03:53:00;23.63;;;17.70;;
5452;SDS011;2749;53.576;9.822;2023-04-16T03:55:27;24.90;;;18.43;;
5452;SDS011;2749;53.576;9.822;2023-04-16T03:57:53;33.27;;;18.97;;
5452;SDS011;2749;53.576;9.822;2023-04-16T04:00:19;26.60;;;19.93;;
5452;SDS011;2749;53.576;9.822;2023-04-16T04:02:45;25.37;;;18.93;;
5452;SDS011;2749;53.576;9.822;2023-04-16T04:05:11;26.70;;;19.67;;
5452;SDS011;2749;53.576;9.822;2023-04-16T04:07:37;27.30;;;18.07;;
5452;SDS011;2749;53.576;9.822;2023-04-16T04:10:03;23.30;;;16.83;;
5452;SDS011;2749;53.576;9.822;2023-04-16T04:12:30;22.30;;;19.93;;
5452;SDS011;2749;53.576;9.822;2023-04-16T04:14:56;24.27;;;18.23;;
5452;SDS011;2749;53.576;9.822;2023-04-16T04:17:22;21.07;;;18.10;;
5452;SDS011;2749;53.576;9.822;2023-04-16T04:19:48;20.60;;;17.90;;
5452;SDS011;2749;53.576;9.822;2023-04-16T04:22:14;21.13;;;16.77;;
5452;SDS011;2749;53.576;9.822;2023-04-16T04:24:40;23.37;;;18.30;;
5452;SDS011;2749;53.576;9.822;2023-04-16T04:27:05;27.03;;;18.97;;
5452;SDS011;2749;53.576;9.822;2023-04-16T04:29:31;22.93;;;16.23;;
5452;SDS011;2749;53.576;9.822;2023-04-16T04:31:57;27.43;;;18.10;;
5452;SDS011;2749;53.576;9.822;2023-04-16T04:34:23;24.73;;;18.00;;
5452;SDS011;2749;53.576;9.822;2023-04-16T04:36:49;24.13;;;19.03;;
5452;SDS011;2749;53.576;9.822;2023-04-16T04:39:15;23.00;;;19.03;;
5452;SDS011;2749;53.576;9.822;2023-04-16T04:41:41;20.87;;;16.90;;
5452;SDS011;2749;53.576;9.822;2023-04-16T04:44:07;23.30;;;17.53;;
5452;SDS011;2749;53.576;9.822;2023-04-16T04:46:33;22.90;;;18.60;;
5452;SDS011;2749;53.576;9.822;2023-04-16T04:48:59;21.50;;;17.70;;
5452;SDS011;2749;53.576;9.822;2023-04-16T04:51:25;24.30;;;19.07;;
5452;SDS011;2749;53.576;9.822;2023-04-16T04:53:51;33.87;;;19.33;;
5452;SDS011;2749;53.576;9.822;2023-04-16T04:56:17;21.37;;;18.07;;
5452;SDS011;2749;53.576;9.822;2023-04-16T04:58:43;22.73;;;18.77;;
5452;SDS011;2749;53.576;9.822;2023-04-16T05:01:09;25.63;;;18.47;;
5452;SDS011;2749;53.576;9.822;2023-04-16T05:03:35;23.97;;;18.70;;
5452;SDS011;2749;53.576;9.822;2023-04-16T05:06:01;27.73;;;20.53;;
5452;SDS011;2749;53.576;9.822;2023-04-16T05:08:26;26.40;;;18.80;;
5452;SDS011;2749;53.576;9.822;2023-04-16T05:10:52;25.53;;;19.87;;
5452;SDS011;2749;53.576;9.822;2023-04-16T05:13:18;25.50;;;19.13;;
5452;SDS011;2749;53.576;9.822;2023-04-16T05:15:44;21.80;;;17.87;;
5452;SDS011;2749;53.576;9.822;2023-04-16T05:18:10;29.23;;;19.60;;
5452;SDS011;2749;53.576;9.822;2023-04-16T05:20:36;22.77;;;17.10;;
5452;SDS011;2749;53.576;9.822;2023-04-16T05:23:02;25.43;;;18.83;;
5452;SDS011;2749;53.576;9.822;2023-04-16T05:25:28;23.67;;;18.60;;
5452;SDS011;2749;53.576;9.822;2023-04-16T05:27:54;21.13;;;17.77;;
5452;SDS011;2749;53.576;9.822;2023-04-16T05:30:20;25.00;;;18.90;;
5452;SDS011;2749;53.576;9.822;2023-04-16T05:32:46;25.07;;;19.47;;
5452;SDS011;2749;53.576;9.822;2023-04-16T05:35:12;21.63;;;18.73;;
5452;SDS011;2749;53.576;9.822;2023-04-16T05:37:38;25.73;;;18.33;;
5452;SDS011;2749;53.576;9.822;2023-04-16T05:40:04;20.40;;;17.07;;
5452;SDS011;2749;53.576;9.822;2023-04-16T05:42:30;26.03;;;19.40;;
5452;SDS011;2749;53.576;9.822;2023-04-16T05:44:56;22.63;;;18.70;;
5452;SDS011;2749;53.576;9.822;2023-04-16T05:47:22;30.23;;;19.83;;
5452;SDS011;2749;53.576;9.822;2023-04-16T05:49:48;27.90;;;19.10;;
5452;SDS011;2749;53.576;9.822;2023-04-16T05:52:14;24.37;;;17.77;;
5452;SDS011;2749;53.576;9.822;2023-04-16T05:54:40;24.70;;;17.73;;
5452;SDS011;2749;53.576;9.822;2023-04-16T05:57:06;25.33;;;18.50;;
5452;SDS011;2749;53.576;9.822;2023-04-16T05:59:32;23.73;;;18.60;;
5452;SDS011;2749;53.576;9.822;2023-04-16T06:01:58;28.73;;;17.83;;
5452;SDS011;2749;53.576;9.822;2023-04-16T06:04:24;23.13;;;16.53;;
5452;SDS011;2749;53.576;9.822;2023-04-16T06:06:50;23.67;;;18.77;;
5452;SDS011;2749;53.576;9.822;2023-04-16T06:09:16;21.13;;;16.90;;
5452;SDS011;2749;53.576;9.822;2023-04-16T06:11:43;22.17;;;17.23;;
5452;SDS011;2749;53.576;9.822;2023-04-16T06:14:09;23.37;;;19.40;;
5452;SDS011;2749;53.576;9.822;2023-04-16T06:16:35;23.90;;;17.83;;
5452;SDS011;2749;53.576;9.822;2023-04-16T06:19:01;26.20;;;19.23;;
5452;SDS011;2749;53.576;9.822;2023-04-16T06:21:27;23.20;;;19.17;;
5452;SDS011;2749;53.576;9.822;2023-04-16T06:23:53;20.90;;;16.47;;
5452;SDS011;2749;53.576;9.822;2023-04-16T06:26:20;20.43;;;17.87;;
5452;SDS011;2749;53.576;9.822;2023-04-16T06:28:46;27.67;;;19.73;;
5452;SDS011;2749;53.576;9.822;2023-04-16T06:31:12;22.57;;;18.03;;
5452;SDS011;2749;53.576;9.822;2023-04-16T06:33:38;26.47;;;20.10;;
5452;SDS011;2749;53.576;9.822;2023-04-16T06:36:04;27.37;;;19.37;;
5452;SDS011;2749;53.576;9.822;2023-04-16T06:38:29;26.27;;;17.73;;
5452;SDS011;2749;53.576;9.822;2023-04-16T06:40:55;22.70;;;17.57;;
5452;SDS011;2749;53.576;9.822;2023-04-16T06:43:23;22.87;;;18.47;;
5452;SDS011;2749;53.576;9.822;2023-04-16T06:45:49;25.30;;;18.77;;
5452;SDS011;2749;53.576;9.822;2023-04-16T06:48:15;23.53;;;18.30;;
5452;SDS011;2749;53.576;9.822;2023-04-16T06:50:41;27.03;;;18.80;;
5452;SDS011;2749;53.576;9.822;2023-04-16T06:53:07;25.00;;;17.93;;
5452;SDS011;2749;53.576;9.822;2023-04-16T06:55:33;20.37;;;17.60;;
5452;SDS011;2749;53.576;9.822;2023-04-16T06:57:59;25.13;;;19.10;;
5452;SDS011;2749;53.576;9.822;2023-04-16T07:00:24;24.57;;;17.83;;
5452;SDS011;2749;53.576;9.822;2023-04-16T07:02:50;27.23;;;16.87;;
5452;SDS011;2749;53.576;9.822;2023-04-16T07:05:16;25.00;;;17.53;;
5452;SDS011;2749;53.576;9.822;2023-04-16T07:07:42;25.00;;;18.17;;
5452;SDS011;2749;53.576;9.822;2023-04-16T07:10:08;29.67;;;17.73;;
5452;SDS011;2749;53.576;9.822;2023-04-16T07:12:34;22.83;;;18.10;;
5452;SDS011;2749;53.576;9.822;2023-04-16T07:15:00;21.23;;;16.73;;
5452;SDS011;2749;53.576;9.822;2023-04-16T07:17:26;23.00;;;18.93;;
5452;SDS011;2749;53.576;9.822;2023-04-16T07:19:52;23.13;;;16.80;;
5452;SDS011;2749;53.576;9.822;2023-04-16T07:22:19;22.47;;;16.70;;
5452;SDS011;2749;53.576;9.822;2023-04-16T07:24:44;26.47;;;18.20;;
5452;SDS011;2749;53.576;9.822;2023-04-16T07:27:10;19.70;;;17.10;;
5452;SDS011;2749;53.576;9.822;2023-04-16T07:29:37;19.10;;;16.50;;
5452;SDS011;2749;53.576;9.822;2023-04-16T07:32:02;22.23;;;17.40;;
5452;SDS011;2749;53.576;9.822;2023-04-16T07:34:29;20.20;;;16.23;;
5452;SDS011;2749;53.576;9.822;2023-04-16T07:36:55;21.63;;;15.40;;
5452;SDS011;2749;53.576;9.822;2023-04-16T07:39:21;21.93;;;17.03;;
5452;SDS011;2749;53.576;9.822;2023-04-16T07:41:47;22.70;;;18.17;;
5452;SDS011;2749;53.576;9.822;2023-04-16T07:44:13;25.23;;;16.67;;
5452;SDS011;2749;53.576;9.822;2023-04-16T07:46:39;21.33;;;17.07;;
5452;SDS011;2749;53.576;9.822;2023-04-16T07:49:05;24.87;;;16.70;;
5452;SDS011;2749;53.576;9.822;2023-04-16T07:51:31;20.17;;;15.63;;
5452;SDS011;2749;53.576;9.822;2023-04-16T07:53:57;22.43;;;18.70;;
5452;SDS011;2749;53.576;9.822;2023-04-16T07:56:23;24.83;;;17.97;;
5452;SDS011;2749;53.576;9.822;2023-04-16T07:58:48;24.07;;;16.60;;
5452;SDS011;2749;53.576;9.822;2023-04-16T08:01:14;24.40;;;17.70;;
5452;SDS011;2749;53.576;9.822;2023-04-16T08:03:41;22.23;;;16.63;;
5452;SDS011;2749;53.576;9.822;2023-04-16T08:06:07;23.93;;;15.27;;
5452;SDS011;2749;53.576;9.822;2023-04-16T08:08:33;18.83;;;15.10;;
5452;SDS011;2749;53.576;9.822;2023-04-16T08:10:59;18.87;;;15.73;;
5452;SDS011;2749;53.576;9.822;2023-04-16T08:13:25;20.50;;;14.93;;
5452;SDS011;2749;53.576;9.822;2023-04-16T08:15:51;21.13;;;16.80;;
5452;SDS011;2749;53.576;9.822;2023-04-16T08:18:17;18.50;;;15.00;;
5452;SDS011;2749;53.576;9.822;2023-04-16T08:20:43;20.50;;;15.17;;
5452;SDS011;2749;53.576;9.822;2023-04-16T08:23:09;18.60;;;15.57;;
5452;SDS011;2749;53.576;9.822;2023-04-16T08:25:35;17.23;;;14.67;;
5452;SDS011;2749;53.576;9.822;2023-04-16T08:28:01;19.27;;;14.47;;
5452;SDS011;2749;53.576;9.822;2023-04-16T08:30:27;17.40;;;15.57;;
5452;SDS011;2749;53.576;9.822;2023-04-16T08:32:53;18.20;;;14.30;;
5452;SDS011;2749;53.576;9.822;2023-04-16T08:35:19;16.10;;;14.40;;
5452;SDS011;2749;53.576;9.822;2023-04-16T08:37:45;15.83;;;13.37;;
5452;SDS011;2749;53.576;9.822;2023-04-16T08:40:11;24.10;;;14.60;;
5452;SDS011;2749;53.576;9.822;2023-04-16T08:42:58;21.07;;;15.47;;
5452;SDS011;2749;53.576;9.822;2023-04-16T08:45:24;16.70;;;14.90;;
5452;SDS011;2749;53.576;9.822;2023-04-16T08:47:51;14.57;;;12.40;;
5452;SDS011;2749;53.576;9.822;2023-04-16T08:50:21;18.53;;;15.80;;
5452;SDS011;2749;53.576;9.822;2023-04-16T08:52:49;20.00;;;14.37;;
5452;SDS011;2749;53.576;9.822;2023-04-16T08:55:17;23.37;;;15.70;;
5452;SDS011;2749;53.576;9.822;2023-04-16T08:57:47;18.93;;;13.07;;
5452;SDS011;2749;53.576;9.822;2023-04-16T09:00:15;17.50;;;13.93;;
5452;SDS011;2749;53.576;9.822;2023-04-16T09:02:41;20.13;;;14.47;;
5452;SDS011;2749;53.576;9.822;2023-04-16T09:05:07;15.83;;;14.00;;
5452;SDS011;2749;53.576;9.822;2023-04-16T09:07:34;15.17;;;11.60;;
5452;SDS011;2749;53.576;9.822;2023-04-16T09:10:00;18.90;;;13.70;;
5452;SDS011;2749;53.576;9.822;2023-04-16T09:12:28;18.60;;;12.27;;
5452;SDS011;2749;53.576;9.822;2023-04-16T09:14:55;15.93;;;13.10;;
5452;SDS011;2749;53.576;9.822;2023-04-16T09:17:23;19.73;;;14.50;;
5452;SDS011;2749;53.576;9.822;2023-04-16T09:19:49;16.40;;;14.53;;
5452;SDS011;2749;53.576;9.822;2023-04-16T09:22:15;17.03;;;13.57;;
5452;SDS011;2749;53.576;9.822;2023-04-16T09:24:41;15.90;;;13.23;;
5452;SDS011;2749;53.576;9.822;2023-04-16T09:27:07;13.83;;;12.30;;
5452;SDS011;2749;53.576;9.822;2023-04-16T09:32:00;16.90;;;13.60;;
5452;SDS011;2749;53.576;9.822;2023-04-16T09:34:27;15.93;;;13.53;;
5452;SDS011;2749;53.576;9.822;2023-04-16T09:36:53;17.73;;;14.33;;
5452;SDS011;2749;53.576;9.822;2023-04-16T09:39:19;16.80;;;13.83;;
5452;SDS011;2749;53.576;9.822;2023-04-16T09:41:45;18.77;;;14.90;;
5452;SDS011;2749;53.576;9.822;2023-04-16T09:44:11;15.60;;;14.00;;
5452;SDS011;2749;53.576;9.822;2023-04-16T09:46:42;22.93;;;13.93;;
5452;SDS011;2749;53.576;9.822;2023-04-16T09:49:12;17.60;;;14.40;;
5452;SDS011;2749;53.576;9.822;2023-04-16T09:51:42;19.20;;;13.17;;
5452;SDS011;2749;53.576;9.822;2023-04-16T09:54:08;20.80;;;14.60;;
5452;SDS011;2749;53.576;9.822;2023-04-16T09:56:41;19.07;;;13.20;;
5452;SDS011;2749;53.576;9.822;2023-04-16T09:59:07;16.23;;;12.90;;
5452;SDS011;2749;53.576;9.822;2023-04-16T10:01:34;15.30;;;13.60;;
5452;SDS011;2749;53.576;9.822;2023-04-16T10:04:01;15.90;;;12.93;;
5452;SDS011;2749;53.576;9.822;2023-04-16T10:06:31;19.20;;;13.97;;
5452;SDS011;2749;53.576;9.822;2023-04-16T10:08:57;19.20;;;14.30;;
5452;SDS011;2749;53.576;9.822;2023-04-16T10:11:23;19.77;;;14.57;;
5452;SDS011;2749;53.576;9.822;2023-04-16T10:13:56;17.00;;;14.20;;
5452;SDS011;2749;53.576;9.822;2023-04-16T10:16:22;14.80;;;12.97;;
5452;SDS011;2749;53.576;9.822;2023-04-16T10:18:48;16.03;;;13.17;;
5452;SDS011;2749;53.576;9.822;2023-04-16T10:21:14;15.23;;;13.63;;
5452;SDS011;2749;53.576;9.822;2023-04-16T10:23:41;19.77;;;14.30;;
5452;SDS011;2749;53.576;9.822;2023-04-16T10:26:08;17.77;;;14.10;;
5452;SDS011;2749;53.576;9.822;2023-04-16T10:28:34;15.83;;;14.20;;
5452;SDS011;2749;53.576;9.822;2023-04-16T10:31:00;14.73;;;13.07;;
5452;SDS011;2749;53.576;9.822;2023-04-16T10:33:27;15.43;;;12.53;;
5452;SDS011;2749;53.576;9.822;2023-04-16T10:36:06;15.57;;;13.37;;
5452;SDS011;2749;53.576;9.822;2023-04-16T10:38:33;16.83;;;13.30;;
5452;SDS011;2749;53.576;9.822;2023-04-16T10:41:02;19.33;;;13.90;;
5452;SDS011;2749;53.576;9.822;2023-04-16T10:43:29;15.80;;;14.20;;
5452;SDS011;2749;53.576;9.822;2023-04-16T10:45:55;17.17;;;15.17;;
5452;SDS011;2749;53.576;9.822;2023-04-16T10:48:24;18.53;;;13.33;;
5452;SDS011;2749;53.576;9.822;2023-04-16T10:50:57;13.60;;;12.20;;
5452;SDS011;2749;53.576;9.822;2023-04-16T10:53:24;17.20;;;13.43;;
5452;SDS011;2749;53.576;9.822;2023-04-16T10:55:57;18.90;;;13.03;;
5452;SDS011;2749;53.576;9.822;2023-04-16T10:58:30;15.73;;;14.00;;
5452;SDS011;2749;53.576;9.822;2023-04-16T11:00:59;18.50;;;13.83;;
5452;SDS011;2749;53.576;9.822;2023-04-16T11:03:29;15.50;;;13.60;;
5452;SDS011;2749;53.576;9.822;2023-04-16T11:06:08;18.00;;;14.03;;
5452;SDS011;2749;53.576;9.822;2023-04-16T11:08:35;25.17;;;14.67;;
5452;SDS011;2749;53.576;9.822;2023-04-16T11:11:01;16.03;;;14.30;;
5452;SDS011;2749;53.576;9.822;2023-04-16T11:13:29;18.73;;;15.37;;
5452;SDS011;2749;53.576;9.822;2023-04-16T11:15:56;15.27;;;12.87;;
5452;SDS011;2749;53.576;9.822;2023-04-16T11:18:22;22.30;;;14.37;;
5452;SDS011;2749;53.576;9.822;2023-04-16T11:20:49;16.30;;;13.73;;
5452;SDS011;2749;53.576;9.822;2023-04-16T11:23:15;16.50;;;13.70;;
5452;SDS011;2749;53.576;9.822;2023-04-16T11:25:41;17.37;;;14.67;;
5452;SDS011;2749;53.576;9.822;2023-04-16T11:28:07;18.37;;;15.50;;
5452;SDS011;2749;53.576;9.822;2023-04-16T11:30:34;20.87;;;14.70;;
5452;SDS011;2749;53.576;9.822;2023-04-16T11:33:04;13.97;;;12.33;;
5452;SDS011;2749;53.576;9.822;2023-04-16T11:35:30;18.13;;;14.23;;
5452;SDS011;2749;53.576;9.822;2023-04-16T11:37:56;14.33;;;12.10;;
5452;SDS011;2749;53.576;9.822;2023-04-16T11:40:22;15.30;;;12.40;;
5452;SDS011;2749;53.576;9.822;2023-04-16T11:42:48;14.57;;;13.00;;
5452;SDS011;2749;53.576;9.822;2023-04-16T11:45:14;21.83;;;14.20;;
5452;SDS011;2749;53.576;9.822;2023-04-16T11:47:44;14.70;;;12.73;;
5452;SDS011;2749;53.576;9.822;2023-04-16T11:52:42;18.10;;;15.43;;
5452;SDS011;2749;53.576;9.822;2023-04-16T11:55:08;18.53;;;13.40;;
5452;SDS011;2749;53.576;9.822;2023-04-16T11:57:34;17.87;;;14.60;;
5452;SDS011;2749;53.576;9.822;2023-04-16T12:00:00;17.87;;;15.47;;
5452;SDS011;2749;53.576;9.822;2023-04-16T12:02:34;17.90;;;14.03;;
5452;SDS011;2749;53.576;9.822;2023-04-16T12:05:00;20.67;;;15.43;;
5452;SDS011;2749;53.576;9.822;2023-04-16T12:07:26;21.37;;;15.70;;
5452;SDS011;2749;53.576;9.822;2023-04-16T12:10:02;15.30;;;13.20;;
5452;SDS011;2749;53.576;9.822;2023-04-16T12:12:30;15.60;;;13.33;;
5452;SDS011;2749;53.576;9.822;2023-04-16T12:14:56;18.90;;;13.63;;
5452;SDS011;2749;53.576;9.822;2023-04-16T12:17:24;16.10;;;14.40;;
5452;SDS011;2749;53.576;9.822;2023-04-16T12:19:51;17.17;;;14.27;;
5452;SDS011;2749;53.576;9.822;2023-04-16T12:22:24;16.90;;;14.47;;
5452;SDS011;2749;53.576;9.822;2023-04-16T12:24:54;18.17;;;13.47;;
5452;SDS011;2749;53.576;9.822;2023-04-16T12:27:20;27.27;;;16.33;;
5452;SDS011;2749;53.576;9.822;2023-04-16T12:30:01;18.50;;;14.53;;
5452;SDS011;2749;53.576;9.822;2023-04-16T12:32:26;16.60;;;14.00;;
5452;SDS011;2749;53.576;9.822;2023-04-16T12:34:52;18.67;;;15.53;;
5452;SDS011;2749;53.576;9.822;2023-04-16T12:37:18;19.50;;;14.17;;
5452;SDS011;2749;53.576;9.822;2023-04-16T12:39:44;22.20;;;16.17;;
5452;SDS011;2749;53.576;9.822;2023-04-16T12:42:10;17.57;;;14.00;;
5452;SDS011;2749;53.576;9.822;2023-04-16T12:44:36;16.50;;;13.67;;
5452;SDS011;2749;53.576;9.822;2023-04-16T12:47:02;19.57;;;16.73;;
5452;SDS011;2749;53.576;9.822;2023-04-16T12:49:29;16.47;;;14.60;;
5452;SDS011;2749;53.576;9.822;2023-04-16T12:51:55;15.87;;;13.70;;
5452;SDS011;2749;53.576;9.822;2023-04-16T12:54:21;16.47;;;14.73;;
5452;SDS011;2749;53.576;9.822;2023-04-16T12:56:47;16.13;;;14.00;;
5452;SDS011;2749;53.576;9.822;2023-04-16T12:59:13;16.87;;;14.70;;
5452;SDS011;2749;53.576;9.822;2023-04-16T13:01:39;19.30;;;14.73;;
5452;SDS011;2749;53.576;9.822;2023-04-16T13:04:05;16.60;;;12.80;;
5452;SDS011;2749;53.576;9.822;2023-04-16T13:06:31;18.07;;;12.03;;
5452;SDS011;2749;53.576;9.822;2023-04-16T13:08:57;18.23;;;13.80;;
5452;SDS011;2749;53.576;9.822;2023-04-16T13:11:23;16.93;;;14.50;;
5452;SDS011;2749;53.576;9.822;2023-04-16T13:13:49;17.00;;;13.23;;
5452;SDS011;2749;53.576;9.822;2023-04-16T13:16:15;16.50;;;13.37;;
5452;SDS011;2749;53.576;9.822;2023-04-16T13:18:41;24.27;;;14.00;;
5452;SDS011;2749;53.576;9.822;2023-04-16T13:21:07;17.63;;;15.33;;
5452;SDS011;2749;53.576;9.822;2023-04-16T13:23:34;15.67;;;12.80;;
5452;SDS011;2749;53.576;9.822;2023-04-16T13:26:00;18.70;;;14.23;;
5452;SDS011;2749;53.576;9.822;2023-04-16T13:28:25;18.23;;;14.57;;
5452;SDS011;2749;53.576;9.822;2023-04-16T13:30:51;17.83;;;15.60;;
5452;SDS011;2749;53.576;9.822;2023-04-16T13:33:18;21.20;;;15.80;;
5452;SDS011;2749;53.576;9.822;2023-04-16T13:35:45;19.03;;;15.40;;
5452;SDS011;2749;53.576;9.822;2023-04-16T13:38:11;17.13;;;14.23;;
5452;SDS011;2749;53.576;9.822;2023-04-16T13:40:37;17.60;;;15.00;;
5452;SDS011;2749;53.576;9.822;2023-04-16T13:43:03;20.47;;;17.00;;
5452;SDS011;2749;53.576;9.822;2023-04-16T13:45:29;22.20;;;17.07;;
5452;SDS011;2749;53.576;9.822;2023-04-16T13:47:54;16.67;;;14.73;;
5452;SDS011;2749;53.576;9.822;2023-04-16T13:50:20;22.70;;;16.47;;
5452;SDS011;2749;53.576;9.822;2023-04-16T13:52:46;17.33;;;14.10;;
5452;SDS011;2749;53.576;9.822;2023-04-16T13:55:12;19.43;;;15.70;;
5452;SDS011;2749;53.576;9.822;2023-04-16T13:57:41;20.43;;;15.80;;
5452;SDS011;2749;53.576;9.822;2023-04-16T14:00:07;17.30;;;15.47;;
5452;SDS011;2749;53.576;9.822;2023-04-16T14:02:33;16.67;;;14.30;;
5452;SDS011;2749;53.576;9.822;2023-04-16T14:04:59;20.73;;;16.20;;
5452;SDS011;2749;53.576;9.822;2023-04-16T14:07:25;18.77;;;14.97;;
5452;SDS011;2749;53.576;9.822;2023-04-16T14:09:52;16.50;;;14.73;;
5452;SDS011;2749;53.576;9.822;2023-04-16T14:12:18;21.80;;;17.07;;
5452;SDS011;2749;53.576;9.822;2023-04-16T14:14:44;18.23;;;15.83;;
5452;SDS011;2749;53.576;9.822;2023-04-16T14:17:10;18.30;;;16.40;;
5452;SDS011;2749;53.576;9.822;2023-04-16T14:19:36;19.63;;;15.97;;
5452;SDS011;2749;53.576;9.822;2023-04-16T14:22:01;17.40;;;13.93;;
5452;SDS011;2749;53.576;9.822;2023-04-16T14:24:27;17.83;;;15.53;;
5452;SDS011;2749;53.576;9.822;2023-04-16T14:26:53;15.93;;;14.10;;
5452;SDS011;2749;53.576;9.822;2023-04-16T14:29:19;26.13;;;16.60;;
5452;SDS011;2749;53.576;9.822;2023-04-16T14:31:45;25.83;;;16.33;;
5452;SDS011;2749;53.576;9.822;2023-04-16T14:34:11;20.77;;;15.23;;
5452;SDS011;2749;53.576;9.822;2023-04-16T14:36:37;18.40;;;15.13;;
5452;SDS011;2749;53.576;9.822;2023-04-16T14:39:03;26.30;;;15.70;;
5452;SDS011;2749;53.576;9.822;2023-04-16T14:41:29;17.60;;;14.63;;
5452;SDS011;2749;53.576;9.822;2023-04-16T14:43:55;20.40;;;15.83;;
5452;SDS011;2749;53.576;9.822;2023-04-16T14:46:21;20.37;;;15.50;;
5452;SDS011;2749;53.576;9.822;2023-04-16T14:48:47;16.37;;;14.77;;